sensor_id;sensor_type;location;lat;lon;timestamp;P1;durP1;ratioP1;P2;durP2;ratioP2
62696;SDS011;48761;42.680;23.312;2023-06-24T00:01:56;14.10;;;11.32;;
62696;SDS011;48761;42.680;23.312;2023-06-24T00:04:22;15.55;;;12.35;;
62696;SDS011;48761;42.680;23.312;2023-06-24T00:06:48;14.80;;;11.32;;
62696;SDS011;48761;42.680;23.312;2023-06-24T00:09:14;17.00;;;11.30;;
62696;SDS011;48761;42.680;23.312;2023-06-24T00:11:40;14.10;;;10.80;;
62696;SDS011;48761;42.680;23.312;2023-06-24T00:14:06;14.07;;;11.60;;
62696;SDS011;48761;42.680;23.312;2023-06-24T00:16:32;15.25;;;11.18;;
62696;SDS011;48761;42.680;23.312;2023-06-24T00:18:58;15.57;;;11.32;;
62696;SDS011;48761;42.680;23.312;2023-06-24T00:21:24;16.65;;;11.30;;
62696;SDS011;48761;42.680;23.312;2023-06-24T00:23:51;14.82;;;11.23;;
62696;SDS011;48761;42.680;23.312;2023-06-24T00:26:17;14.82;;;11.23;;
62696;SDS011;48761;42.680;23.312;2023-06-24T00:28:43;16.08;;;11.77;;
62696;SDS011;48761;42.680;23.312;2023-06-24T00:31:08;19.33;;;11.45;;
62696;SDS011;48761;42.680;23.312;2023-06-24T00:33:34;15.65;;;12.50;;
62696;SDS011;48761;42.680;23.312;2023-06-24T00:36:00;15.32;;;12.25;;
62696;SDS011;48761;42.680;23.312;2023-06-24T00:38:26;16.85;;;12.00;;
62696;SDS011;48761;42.680;23.312;2023-06-24T00:40:52;13.10;;;11.65;;
62696;SDS011;48761;42.680;23.312;2023-06-24T00:43:18;16.65;;;11.88;;
62696;SDS011;48761;42.680;23.312;2023-06-24T00:45:44;15.45;;;12.20;;
62696;SDS011;48761;42.680;23.312;2023-06-24T00:48:10;14.70;;;11.93;;
62696;SDS011;48761;42.680;23.312;2023-06-24T00:50:36;14.93;;;11.55;;
62696;SDS011;48761;42.680;23.312;2023-06-24T00:53:02;17.05;;;12.63;;
62696;SDS011;48761;42.680;23.312;2023-06-24T00:55:28;16.50;;;12.80;;
62696;SDS011;48761;42.680;23.312;2023-06-24T00:57:55;16.20;;;12.57;;
62696;SDS011;48761;42.680;23.312;2023-06-24T01:00:21;20.10;;;12.63;;
62696;SDS011;48761;42.680;23.312;2023-06-24T01:02:48;19.55;;;13.82;;
62696;SDS011;48761;42.680;23.312;2023-06-24T01:05:15;22.08;;;16.65;;
62696;SDS011;48761;42.680;23.312;2023-06-24T01:07:41;31.42;;;19.83;;
62696;SDS011;48761;42.680;23.312;2023-06-24T01:10:08;25.92;;;18.63;;
62696;SDS011;48761;42.680;23.312;2023-06-24T01:12:36;22.38;;;15.00;;
62696;SDS011;48761;42.680;23.312;2023-06-24T01:15:04;20.17;;;13.82;;
62696;SDS011;48761;42.680;23.312;2023-06-24T01:20:29;15.52;;;12.80;;
62696;SDS011;48761;42.680;23.312;2023-06-24T01:30:56;18.02;;;12.68;;
62696;SDS011;48761;42.680;23.312;2023-06-24T01:33:43;14.18;;;12.43;;
62696;SDS011;48761;42.680;23.312;2023-06-24T01:36:17;14.75;;;12.60;;
62696;SDS011;48761;42.680;23.312;2023-06-24T01:38:48;15.38;;;12.27;;
62696;SDS011;48761;42.680;23.312;2023-06-24T01:41:21;16.85;;;13.02;;
62696;SDS011;48761;42.680;23.312;2023-06-24T01:43:53;17.67;;;13.40;;
62696;SDS011;48761;42.680;23.312;2023-06-24T01:46:22;16.30;;;13.17;;
62696;SDS011;48761;42.680;23.312;2023-06-24T01:48:50;17.48;;;13.18;;
62696;SDS011;48761;42.680;23.312;2023-06-24T01:51:21;14.82;;;12.60;;
62696;SDS011;48761;42.680;23.312;2023-06-24T01:53:52;14.65;;;12.23;;
62696;SDS011;48761;42.680;23.312;2023-06-24T01:56:22;17.42;;;13.05;;
62696;SDS011;48761;42.680;23.312;2023-06-24T01:58:50;19.20;;;13.05;;
62696;SDS011;48761;42.680;23.312;2023-06-24T02:01:18;16.35;;;12.23;;
62696;SDS011;48761;42.680;23.312;2023-06-24T02:03:46;17.95;;;12.45;;
62696;SDS011;48761;42.680;23.312;2023-06-24T02:06:14;18.83;;;13.50;;
62696;SDS011;48761;42.680;23.312;2023-06-24T02:08:42;22.25;;;13.93;;
62696;SDS011;48761;42.680;23.312;2023-06-24T02:11:09;19.40;;;12.77;;
62696;SDS011;48761;42.680;23.312;2023-06-24T02:13:37;17.45;;;12.93;;
62696;SDS011;48761;42.680;23.312;2023-06-24T02:16:06;18.08;;;13.05;;
62696;SDS011;48761;42.680;23.312;2023-06-24T02:18:34;18.20;;;12.98;;
62696;SDS011;48761;42.680;23.312;2023-06-24T02:21:02;19.88;;;13.32;;
62696;SDS011;48761;42.680;23.312;2023-06-24T02:23:29;17.70;;;12.95;;
62696;SDS011;48761;42.680;23.312;2023-06-24T02:25:56;18.63;;;13.70;;
62696;SDS011;48761;42.680;23.312;2023-06-24T02:28:23;19.42;;;14.10;;
62696;SDS011;48761;42.680;23.312;2023-06-24T02:30:50;19.30;;;14.70;;
62696;SDS011;48761;42.680;23.312;2023-06-24T02:33:16;20.90;;;13.90;;
62696;SDS011;48761;42.680;23.312;2023-06-24T02:35:42;19.83;;;13.60;;
62696;SDS011;48761;42.680;23.312;2023-06-24T02:38:09;25.95;;;17.15;;
62696;SDS011;48761;42.680;23.312;2023-06-24T02:40:34;19.85;;;15.02;;
62696;SDS011;48761;42.680;23.312;2023-06-24T02:43:00;23.42;;;16.60;;
62696;SDS011;48761;42.680;23.312;2023-06-24T02:45:26;25.58;;;16.42;;
62696;SDS011;48761;42.680;23.312;2023-06-24T02:47:53;22.33;;;16.00;;
62696;SDS011;48761;42.680;23.312;2023-06-24T02:50:21;19.17;;;14.07;;
62696;SDS011;48761;42.680;23.312;2023-06-24T02:52:48;21.08;;;16.25;;
62696;SDS011;48761;42.680;23.312;2023-06-24T02:55:15;28.90;;;18.52;;
62696;SDS011;48761;42.680;23.312;2023-06-24T02:57:41;26.48;;;19.50;;
62696;SDS011;48761;42.680;23.312;2023-06-24T03:00:08;23.73;;;17.92;;
62696;SDS011;48761;42.680;23.312;2023-06-24T03:02:34;22.33;;;17.15;;
62696;SDS011;48761;42.680;23.312;2023-06-24T03:05:00;22.88;;;16.73;;
62696;SDS011;48761;42.680;23.312;2023-06-24T03:07:27;20.05;;;15.57;;
62696;SDS011;48761;42.680;23.312;2023-06-24T03:09:53;19.17;;;14.75;;
62696;SDS011;48761;42.680;23.312;2023-06-24T03:12:19;24.02;;;15.85;;
62696;SDS011;48761;42.680;23.312;2023-06-24T03:14:45;24.05;;;16.05;;
62696;SDS011;48761;42.680;23.312;2023-06-24T03:17:11;18.80;;;15.02;;
62696;SDS011;48761;42.680;23.312;2023-06-24T03:19:37;22.30;;;14.77;;
62696;SDS011;48761;42.680;23.312;2023-06-24T03:22:03;20.48;;;16.20;;
62696;SDS011;48761;42.680;23.312;2023-06-24T03:24:30;19.95;;;15.75;;
62696;SDS011;48761;42.680;23.312;2023-06-24T03:26:56;22.55;;;17.58;;
62696;SDS011;48761;42.680;23.312;2023-06-24T03:29:22;22.60;;;16.90;;
62696;SDS011;48761;42.680;23.312;2023-06-24T03:31:48;28.60;;;21.10;;
62696;SDS011;48761;42.680;23.312;2023-06-24T03:34:15;22.85;;;17.98;;
62696;SDS011;48761;42.680;23.312;2023-06-24T03:36:41;19.92;;;15.70;;
62696;SDS011;48761;42.680;23.312;2023-06-24T03:39:06;19.98;;;15.10;;
62696;SDS011;48761;42.680;23.312;2023-06-24T03:41:32;19.25;;;15.40;;
62696;SDS011;48761;42.680;23.312;2023-06-24T03:43:58;22.67;;;16.33;;
62696;SDS011;48761;42.680;23.312;2023-06-24T03:46:24;18.55;;;14.80;;
62696;SDS011;48761;42.680;23.312;2023-06-24T03:48:51;26.38;;;18.10;;
62696;SDS011;48761;42.680;23.312;2023-06-24T03:51:17;21.30;;;17.13;;
62696;SDS011;48761;42.680;23.312;2023-06-24T03:53:43;21.25;;;14.82;;
62696;SDS011;48761;42.680;23.312;2023-06-24T03:56:09;19.88;;;14.50;;
62696;SDS011;48761;42.680;23.312;2023-06-24T03:58:35;23.80;;;15.65;;
62696;SDS011;48761;42.680;23.312;2023-06-24T04:01:02;19.15;;;13.95;;
62696;SDS011;48761;42.680;23.312;2023-06-24T04:03:28;19.10;;;14.82;;
62696;SDS011;48761;42.680;23.312;2023-06-24T04:05:55;19.80;;;15.40;;
62696;SDS011;48761;42.680;23.312;2023-06-24T04:08:21;19.27;;;15.23;;
62696;SDS011;48761;42.680;23.312;2023-06-24T04:10:48;19.65;;;15.10;;
62696;SDS011;48761;42.680;23.312;2023-06-24T04:13:14;18.90;;;15.15;;
62696;SDS011;48761;42.680;23.312;2023-06-24T04:15:40;21.80;;;15.18;;
62696;SDS011;48761;42.680;23.312;2023-06-24T04:18:06;21.38;;;15.98;;
62696;SDS011;48761;42.680;23.312;2023-06-24T04:20:32;18.65;;;15.27;;
62696;SDS011;48761;42.680;23.312;2023-06-24T04:22:58;22.45;;;15.50;;
62696;SDS011;48761;42.680;23.312;2023-06-24T04:25:24;20.70;;;16.10;;
62696;SDS011;48761;42.680;23.312;2023-06-24T04:27:50;22.77;;;17.83;;
62696;SDS011;48761;42.680;23.312;2023-06-24T04:30:16;24.92;;;16.90;;
62696;SDS011;48761;42.680;23.312;2023-06-24T04:32:42;25.70;;;16.13;;
62696;SDS011;48761;42.680;23.312;2023-06-24T04:35:08;18.73;;;15.32;;
62696;SDS011;48761;42.680;23.312;2023-06-24T04:37:34;21.10;;;15.73;;
62696;SDS011;48761;42.680;23.312;2023-06-24T04:40:00;21.13;;;14.63;;
62696;SDS011;48761;42.680;23.312;2023-06-24T04:42:26;18.02;;;15.57;;
62696;SDS011;48761;42.680;23.312;2023-06-24T04:44:52;21.30;;;15.60;;
62696;SDS011;48761;42.680;23.312;2023-06-24T04:47:18;24.90;;;15.95;;
62696;SDS011;48761;42.680;23.312;2023-06-24T04:49:44;20.10;;;16.42;;
62696;SDS011;48761;42.680;23.312;2023-06-24T04:52:11;18.52;;;15.23;;
62696;SDS011;48761;42.680;23.312;2023-06-24T04:54:37;23.50;;;16.52;;
62696;SDS011;48761;42.680;23.312;2023-06-24T04:57:05;19.02;;;15.20;;
62696;SDS011;48761;42.680;23.312;2023-06-24T04:59:31;16.58;;;14.23;;
62696;SDS011;48761;42.680;23.312;2023-06-24T05:01:57;29.20;;;16.85;;
62696;SDS011;48761;42.680;23.312;2023-06-24T05:04:23;22.50;;;15.20;;
62696;SDS011;48761;42.680;23.312;2023-06-24T05:06:49;20.13;;;15.40;;
62696;SDS011;48761;42.680;23.312;2023-06-24T05:09:15;19.40;;;13.85;;
62696;SDS011;48761;42.680;23.312;2023-06-24T05:11:41;21.98;;;15.10;;
62696;SDS011;48761;42.680;23.312;2023-06-24T05:14:07;18.65;;;14.43;;
62696;SDS011;48761;42.680;23.312;2023-06-24T05:16:33;22.50;;;15.45;;
62696;SDS011;48761;42.680;23.312;2023-06-24T05:18:59;18.35;;;14.82;;
62696;SDS011;48761;42.680;23.312;2023-06-24T05:21:27;18.98;;;15.05;;
62696;SDS011;48761;42.680;23.312;2023-06-24T05:23:53;20.15;;;14.30;;
62696;SDS011;48761;42.680;23.312;2023-06-24T05:26:19;17.33;;;13.82;;
62696;SDS011;48761;42.680;23.312;2023-06-24T05:28:45;21.45;;;13.88;;
62696;SDS011;48761;42.680;23.312;2023-06-24T05:31:11;24.85;;;14.35;;
62696;SDS011;48761;42.680;23.312;2023-06-24T05:33:37;22.13;;;14.85;;
62696;SDS011;48761;42.680;23.312;2023-06-24T05:36:03;17.70;;;13.38;;
62696;SDS011;48761;42.680;23.312;2023-06-24T05:38:29;20.70;;;15.07;;
62696;SDS011;48761;42.680;23.312;2023-06-24T05:40:54;20.30;;;14.60;;
62696;SDS011;48761;42.680;23.312;2023-06-24T05:43:20;20.15;;;14.25;;
62696;SDS011;48761;42.680;23.312;2023-06-24T05:45:46;19.65;;;14.45;;
62696;SDS011;48761;42.680;23.312;2023-06-24T05:48:12;19.15;;;14.52;;
62696;SDS011;48761;42.680;23.312;2023-06-24T05:50:38;19.02;;;14.18;;
62696;SDS011;48761;42.680;23.312;2023-06-24T05:53:04;19.08;;;12.85;;
62696;SDS011;48761;42.680;23.312;2023-06-24T05:55:30;16.70;;;14.15;;
62696;SDS011;48761;42.680;23.312;2023-06-24T05:57:56;20.38;;;14.23;;
62696;SDS011;48761;42.680;23.312;2023-06-24T06:00:22;21.17;;;13.43;;
62696;SDS011;48761;42.680;23.312;2023-06-24T06:02:48;18.55;;;13.48;;
62696;SDS011;48761;42.680;23.312;2023-06-24T06:05:14;18.17;;;12.68;;
62696;SDS011;48761;42.680;23.312;2023-06-24T06:07:40;16.40;;;12.68;;
62696;SDS011;48761;42.680;23.312;2023-06-24T06:10:06;13.02;;;11.57;;
62696;SDS011;48761;42.680;23.312;2023-06-24T06:12:32;14.73;;;11.20;;
62696;SDS011;48761;42.680;23.312;2023-06-24T06:14:58;14.25;;;11.50;;
62696;SDS011;48761;42.680;23.312;2023-06-24T06:17:24;19.85;;;12.65;;
62696;SDS011;48761;42.680;23.312;2023-06-24T06:19:50;16.23;;;12.38;;
62696;SDS011;48761;42.680;23.312;2023-06-24T06:22:16;22.85;;;13.50;;
62696;SDS011;48761;42.680;23.312;2023-06-24T06:24:42;18.10;;;14.05;;
62696;SDS011;48761;42.680;23.312;2023-06-24T06:27:12;20.33;;;14.65;;
62696;SDS011;48761;42.680;23.312;2023-06-24T06:29:38;16.88;;;13.18;;
62696;SDS011;48761;42.680;23.312;2023-06-24T06:32:04;18.20;;;13.27;;
62696;SDS011;48761;42.680;23.312;2023-06-24T06:34:30;22.20;;;13.90;;
62696;SDS011;48761;42.680;23.312;2023-06-24T06:36:56;18.20;;;14.43;;
62696;SDS011;48761;42.680;23.312;2023-06-24T06:39:22;19.67;;;15.27;;
62696;SDS011;48761;42.680;23.312;2023-06-24T06:44:24;21.17;;;12.73;;
62696;SDS011;48761;42.680;23.312;2023-06-24T06:46:50;15.93;;;12.35;;
62696;SDS011;48761;42.680;23.312;2023-06-24T06:49:16;15.05;;;11.95;;
62696;SDS011;48761;42.680;23.312;2023-06-24T06:51:42;17.17;;;12.82;;
62696;SDS011;48761;42.680;23.312;2023-06-24T06:54:08;21.15;;;12.13;;
62696;SDS011;48761;42.680;23.312;2023-06-24T06:56:34;15.40;;;11.82;;
62696;SDS011;48761;42.680;23.312;2023-06-24T06:59:00;16.73;;;11.63;;
62696;SDS011;48761;42.680;23.312;2023-06-24T07:01:26;14.20;;;11.10;;
62696;SDS011;48761;42.680;23.312;2023-06-24T07:03:52;15.50;;;11.85;;
62696;SDS011;48761;42.680;23.312;2023-06-24T07:06:18;15.35;;;12.27;;
62696;SDS011;48761;42.680;23.312;2023-06-24T07:08:44;14.23;;;12.20;;
62696;SDS011;48761;42.680;23.312;2023-06-24T07:11:10;19.25;;;12.85;;
62696;SDS011;48761;42.680;23.312;2023-06-24T07:13:36;16.70;;;12.50;;
62696;SDS011;48761;42.680;23.312;2023-06-24T07:16:02;17.00;;;12.55;;
62696;SDS011;48761;42.680;23.312;2023-06-24T07:18:28;13.35;;;11.55;;
62696;SDS011;48761;42.680;23.312;2023-06-24T07:20:54;16.98;;;11.93;;
62696;SDS011;48761;42.680;23.312;2023-06-24T07:23:20;20.27;;;12.15;;
62696;SDS011;48761;42.680;23.312;2023-06-24T07:25:46;15.60;;;11.88;;
62696;SDS011;48761;42.680;23.312;2023-06-24T07:28:12;16.48;;;12.13;;
62696;SDS011;48761;42.680;23.312;2023-06-24T07:30:38;16.08;;;12.18;;
62696;SDS011;48761;42.680;23.312;2023-06-24T07:33:04;14.95;;;11.75;;
62696;SDS011;48761;42.680;23.312;2023-06-24T07:35:30;17.58;;;13.07;;
62696;SDS011;48761;42.680;23.312;2023-06-24T07:37:56;17.48;;;12.55;;
62696;SDS011;48761;42.680;23.312;2023-06-24T07:40:22;16.73;;;12.52;;
62696;SDS011;48761;42.680;23.312;2023-06-24T07:42:48;18.27;;;12.43;;
62696;SDS011;48761;42.680;23.312;2023-06-24T07:45:13;14.68;;;11.82;;
62696;SDS011;48761;42.680;23.312;2023-06-24T07:47:39;17.45;;;12.70;;
62696;SDS011;48761;42.680;23.312;2023-06-24T07:50:05;16.58;;;12.70;;
62696;SDS011;48761;42.680;23.312;2023-06-24T07:52:31;14.00;;;11.80;;
62696;SDS011;48761;42.680;23.312;2023-06-24T07:54:58;15.32;;;12.65;;
62696;SDS011;48761;42.680;23.312;2023-06-24T07:57:24;18.70;;;12.27;;
62696;SDS011;48761;42.680;23.312;2023-06-24T07:59:52;18.33;;;12.48;;
62696;SDS011;48761;42.680;23.312;2023-06-24T08:02:18;15.95;;;12.73;;
62696;SDS011;48761;42.680;23.312;2023-06-24T08:04:44;16.05;;;12.35;;
62696;SDS011;48761;42.680;23.312;2023-06-24T08:07:10;20.17;;;13.80;;
62696;SDS011;48761;42.680;23.312;2023-06-24T08:09:36;18.42;;;12.80;;
62696;SDS011;48761;42.680;23.312;2023-06-24T08:12:02;17.55;;;12.55;;
62696;SDS011;48761;42.680;23.312;2023-06-24T08:14:29;15.60;;;12.50;;
62696;SDS011;48761;42.680;23.312;2023-06-24T08:16:55;16.38;;;12.10;;
62696;SDS011;48761;42.680;23.312;2023-06-24T08:19:21;14.95;;;12.10;;
62696;SDS011;48761;42.680;23.312;2023-06-24T08:21:47;17.55;;;12.82;;
62696;SDS011;48761;42.680;23.312;2023-06-24T08:24:12;16.60;;;12.63;;
62696;SDS011;48761;42.680;23.312;2023-06-24T08:26:38;17.02;;;12.95;;
62696;SDS011;48761;42.680;23.312;2023-06-24T08:29:04;15.88;;;12.98;;
62696;SDS011;48761;42.680;23.312;2023-06-24T08:31:30;17.75;;;12.73;;
62696;SDS011;48761;42.680;23.312;2023-06-24T08:33:58;16.08;;;12.65;;
62696;SDS011;48761;42.680;23.312;2023-06-24T08:36:26;16.13;;;13.50;;
62696;SDS011;48761;42.680;23.312;2023-06-24T08:38:53;19.63;;;13.57;;
62696;SDS011;48761;42.680;23.312;2023-06-24T08:41:19;15.48;;;11.73;;
62696;SDS011;48761;42.680;23.312;2023-06-24T08:43:45;21.60;;;14.85;;
62696;SDS011;48761;42.680;23.312;2023-06-24T08:46:12;14.95;;;13.00;;
62696;SDS011;48761;42.680;23.312;2023-06-24T08:48:40;16.30;;;12.90;;
62696;SDS011;48761;42.680;23.312;2023-06-24T08:51:08;13.63;;;12.10;;
62696;SDS011;48761;42.680;23.312;2023-06-24T08:53:37;17.58;;;13.02;;
62696;SDS011;48761;42.680;23.312;2023-06-24T08:56:07;15.95;;;13.35;;
62696;SDS011;48761;42.680;23.312;2023-06-24T08:58:33;15.75;;;12.35;;
62696;SDS011;48761;42.680;23.312;2023-06-24T09:01:00;15.65;;;12.40;;
62696;SDS011;48761;42.680;23.312;2023-06-24T09:03:27;14.98;;;11.45;;
62696;SDS011;48761;42.680;23.312;2023-06-24T09:05:52;16.63;;;12.45;;
62696;SDS011;48761;42.680;23.312;2023-06-24T09:08:19;14.90;;;12.18;;
62696;SDS011;48761;42.680;23.312;2023-06-24T09:10:44;18.42;;;12.15;;
62696;SDS011;48761;42.680;23.312;2023-06-24T09:13:10;15.93;;;12.88;;
62696;SDS011;48761;42.680;23.312;2023-06-24T09:15:37;15.57;;;12.40;;
62696;SDS011;48761;42.680;23.312;2023-06-24T09:18:04;15.02;;;12.02;;
62696;SDS011;48761;42.680;23.312;2023-06-24T09:20:31;15.07;;;12.00;;
62696;SDS011;48761;42.680;23.312;2023-06-24T09:23:01;14.00;;;11.88;;
62696;SDS011;48761;42.680;23.312;2023-06-24T09:25:28;14.80;;;11.40;;
62696;SDS011;48761;42.680;23.312;2023-06-24T09:27:54;17.52;;;11.68;;
62696;SDS011;48761;42.680;23.312;2023-06-24T09:30:21;15.15;;;11.45;;
62696;SDS011;48761;42.680;23.312;2023-06-24T09:32:50;19.67;;;12.10;;
62696;SDS011;48761;42.680;23.312;2023-06-24T09:35:35;14.50;;;11.55;;
62696;SDS011;48761;42.680;23.312;2023-06-24T09:38:01;15.60;;;12.10;;
62696;SDS011;48761;42.680;23.312;2023-06-24T09:40:27;18.05;;;12.18;;
62696;SDS011;48761;42.680;23.312;2023-06-24T09:42:53;19.48;;;12.00;;
62696;SDS011;48761;42.680;23.312;2023-06-24T09:45:24;15.88;;;12.50;;
62696;SDS011;48761;42.680;23.312;2023-06-24T09:47:52;16.98;;;12.00;;
62696;SDS011;48761;42.680;23.312;2023-06-24T09:50:19;14.35;;;11.80;;
62696;SDS011;48761;42.680;23.312;2023-06-24T09:52:46;15.68;;;11.70;;
62696;SDS011;48761;42.680;23.312;2023-06-24T09:55:14;17.73;;;11.18;;
62696;SDS011;48761;42.680;23.312;2023-06-24T09:57:42;16.63;;;11.48;;
62696;SDS011;48761;42.680;23.312;2023-06-24T10:00:10;15.38;;;11.25;;
62696;SDS011;48761;42.680;23.312;2023-06-24T10:02:37;13.77;;;10.70;;
62696;SDS011;48761;42.680;23.312;2023-06-24T10:05:04;13.25;;;10.88;;
62696;SDS011;48761;42.680;23.312;2023-06-24T10:07:30;13.30;;;11.50;;
62696;SDS011;48761;42.680;23.312;2023-06-24T10:09:58;13.88;;;11.35;;
62696;SDS011;48761;42.680;23.312;2023-06-24T10:12:24;16.40;;;11.38;;
62696;SDS011;48761;42.680;23.312;2023-06-24T10:14:50;17.55;;;11.52;;
62696;SDS011;48761;42.680;23.312;2023-06-24T10:17:16;17.20;;;11.27;;
62696;SDS011;48761;42.680;23.312;2023-06-24T10:19:42;14.35;;;10.82;;
62696;SDS011;48761;42.680;23.312;2023-06-24T10:22:10;14.13;;;11.13;;
62696;SDS011;48761;42.680;23.312;2023-06-24T10:24:40;15.82;;;11.95;;
62696;SDS011;48761;42.680;23.312;2023-06-24T10:32:05;13.85;;;11.88;;
62696;SDS011;48761;42.680;23.312;2023-06-24T10:37:14;14.00;;;10.52;;
62696;SDS011;48761;42.680;23.312;2023-06-24T10:39:52;16.58;;;10.60;;
62696;SDS011;48761;42.680;23.312;2023-06-24T10:47:34;14.20;;;10.32;;
62696;SDS011;48761;42.680;23.312;2023-06-24T10:50:04;17.13;;;10.35;;
62696;SDS011;48761;42.680;23.312;2023-06-24T10:52:31;12.77;;;10.48;;
62696;SDS011;48761;42.680;23.312;2023-06-24T10:54:57;15.98;;;10.07;;
62696;SDS011;48761;42.680;23.312;2023-06-24T10:57:25;11.85;;;9.52;;
62696;SDS011;48761;42.680;23.312;2023-06-24T10:59:53;14.75;;;9.50;;
62696;SDS011;48761;42.680;23.312;2023-06-24T11:02:21;12.88;;;9.70;;
62696;SDS011;48761;42.680;23.312;2023-06-24T11:04:51;12.85;;;9.35;;
62696;SDS011;48761;42.680;23.312;2023-06-24T11:07:22;10.52;;;8.82;;
62696;SDS011;48761;42.680;23.312;2023-06-24T11:09:52;12.95;;;8.63;;
62696;SDS011;48761;42.680;23.312;2023-06-24T11:12:23;10.35;;;9.13;;
62696;SDS011;48761;42.680;23.312;2023-06-24T11:14:51;14.00;;;9.73;;
62696;SDS011;48761;42.680;23.312;2023-06-24T11:17:19;13.32;;;8.40;;
62696;SDS011;48761;42.680;23.312;2023-06-24T11:19:45;13.50;;;9.13;;
62696;SDS011;48761;42.680;23.312;2023-06-24T11:22:11;12.95;;;9.07;;
62696;SDS011;48761;42.680;23.312;2023-06-24T11:24:37;12.00;;;8.77;;
62696;SDS011;48761;42.680;23.312;2023-06-24T11:27:03;9.35;;;8.00;;
62696;SDS011;48761;42.680;23.312;2023-06-24T11:29:29;10.95;;;8.55;;
62696;SDS011;48761;42.680;23.312;2023-06-24T11:31:57;10.98;;;8.18;;
62696;SDS011;48761;42.680;23.312;2023-06-24T11:34:23;10.77;;;8.07;;
62696;SDS011;48761;42.680;23.312;2023-06-24T11:36:49;10.80;;;8.70;;
62696;SDS011;48761;42.680;23.312;2023-06-24T11:39:25;11.50;;;9.10;;
62696;SDS011;48761;42.680;23.312;2023-06-24T11:41:52;10.43;;;8.57;;
62696;SDS011;48761;42.680;23.312;2023-06-24T11:44:23;9.82;;;7.80;;
62696;SDS011;48761;42.680;23.312;2023-06-24T11:46:49;11.73;;;8.00;;
62696;SDS011;48761;42.680;23.312;2023-06-24T11:49:15;11.15;;;7.75;;
62696;SDS011;48761;42.680;23.312;2023-06-24T11:51:50;11.10;;;8.30;;
62696;SDS011;48761;42.680;23.312;2023-06-24T11:54:17;12.57;;;8.57;;
62696;SDS011;48761;42.680;23.312;2023-06-24T11:56:44;11.13;;;7.88;;
62696;SDS011;48761;42.680;23.312;2023-06-24T11:59:21;11.32;;;7.80;;
62696;SDS011;48761;42.680;23.312;2023-06-24T12:01:52;10.10;;;8.20;;
62696;SDS011;48761;42.680;23.312;2023-06-24T12:04:27;9.18;;;7.53;;
62696;SDS011;48761;42.680;23.312;2023-06-24T12:06:54;9.75;;;7.47;;
62696;SDS011;48761;42.680;23.312;2023-06-24T12:09:20;8.30;;;7.47;;
62696;SDS011;48761;42.680;23.312;2023-06-24T12:11:46;10.00;;;7.72;;
62696;SDS011;48761;42.680;23.312;2023-06-24T12:14:12;10.73;;;7.50;;
62696;SDS011;48761;42.680;23.312;2023-06-24T12:16:38;12.35;;;7.80;;
62696;SDS011;48761;42.680;23.312;2023-06-24T12:19:08;14.57;;;8.40;;
62696;SDS011;48761;42.680;23.312;2023-06-24T12:21:34;10.77;;;8.23;;
62696;SDS011;48761;42.680;23.312;2023-06-24T12:24:04;10.43;;;8.40;;
62696;SDS011;48761;42.680;23.312;2023-06-24T12:26:31;11.35;;;8.85;;
62696;SDS011;48761;42.680;23.312;2023-06-24T12:28:57;10.18;;;7.95;;
62696;SDS011;48761;42.680;23.312;2023-06-24T12:31:24;10.77;;;8.00;;
62696;SDS011;48761;42.680;23.312;2023-06-24T12:33:51;9.82;;;7.88;;
62696;SDS011;48761;42.680;23.312;2023-06-24T12:36:17;11.32;;;8.25;;
62696;SDS011;48761;42.680;23.312;2023-06-24T12:38:44;10.90;;;7.95;;
62696;SDS011;48761;42.680;23.312;2023-06-24T12:41:10;11.40;;;8.48;;
62696;SDS011;48761;42.680;23.312;2023-06-24T12:43:36;10.93;;;7.93;;
62696;SDS011;48761;42.680;23.312;2023-06-24T12:46:02;12.02;;;8.20;;
62696;SDS011;48761;42.680;23.312;2023-06-24T12:48:28;12.05;;;8.00;;
62696;SDS011;48761;42.680;23.312;2023-06-24T12:50:54;10.38;;;8.57;;
62696;SDS011;48761;42.680;23.312;2023-06-24T12:53:20;10.77;;;8.35;;
62696;SDS011;48761;42.680;23.312;2023-06-24T12:55:47;11.00;;;8.55;;
62696;SDS011;48761;42.680;23.312;2023-06-24T12:58:13;15.15;;;9.05;;
62696;SDS011;48761;42.680;23.312;2023-06-24T13:00:40;10.45;;;8.43;;
62696;SDS011;48761;42.680;23.312;2023-06-24T13:03:06;12.50;;;9.00;;
62696;SDS011;48761;42.680;23.312;2023-06-24T13:05:32;14.45;;;9.07;;
62696;SDS011;48761;42.680;23.312;2023-06-24T13:07:58;12.73;;;8.18;;
62696;SDS011;48761;42.680;23.312;2023-06-24T13:10:24;11.77;;;8.40;;
62696;SDS011;48761;42.680;23.312;2023-06-24T13:12:49;14.98;;;8.50;;
62696;SDS011;48761;42.680;23.312;2023-06-24T13:15:16;14.07;;;8.52;;
62696;SDS011;48761;42.680;23.312;2023-06-24T13:17:42;13.18;;;8.73;;
62696;SDS011;48761;42.680;23.312;2023-06-24T13:20:08;12.45;;;8.85;;
62696;SDS011;48761;42.680;23.312;2023-06-24T13:22:35;11.98;;;9.73;;
62696;SDS011;48761;42.680;23.312;2023-06-24T13:25:01;14.05;;;9.68;;
62696;SDS011;48761;42.680;23.312;2023-06-24T13:27:27;18.00;;;10.48;;
62696;SDS011;48761;42.680;23.312;2023-06-24T13:29:54;20.10;;;11.30;;
62696;SDS011;48761;42.680;23.312;2023-06-24T13:32:20;20.58;;;9.85;;
62696;SDS011;48761;42.680;23.312;2023-06-24T13:34:45;29.42;;;10.43;;
62696;SDS011;48761;42.680;23.312;2023-06-24T13:37:11;24.73;;;9.13;;
62696;SDS011;48761;42.680;23.312;2023-06-24T13:39:37;26.15;;;11.02;;
62696;SDS011;48761;42.680;23.312;2023-06-24T13:42:03;17.25;;;7.30;;
62696;SDS011;48761;42.680;23.312;2023-06-24T13:44:29;24.45;;;7.60;;
62696;SDS011;48761;42.680;23.312;2023-06-24T13:46:55;28.20;;;8.40;;
62696;SDS011;48761;42.680;23.312;2023-06-24T13:49:21;29.90;;;9.32;;
62696;SDS011;48761;42.680;23.312;2023-06-24T13:51:48;41.15;;;9.70;;
62696;SDS011;48761;42.680;23.312;2023-06-24T13:54:14;38.70;;;9.82;;
62696;SDS011;48761;42.680;23.312;2023-06-24T13:56:41;20.67;;;8.80;;
62696;SDS011;48761;42.680;23.312;2023-06-24T13:59:07;23.73;;;8.88;;
62696;SDS011;48761;42.680;23.312;2023-06-24T14:01:33;20.92;;;7.78;;
62696;SDS011;48761;42.680;23.312;2023-06-24T14:03:59;17.08;;;7.78;;
62696;SDS011;48761;42.680;23.312;2023-06-24T14:06:24;15.20;;;6.38;;
62696;SDS011;48761;42.680;23.312;2023-06-24T14:08:51;14.02;;;5.80;;
62696;SDS011;48761;42.680;23.312;2023-06-24T14:11:17;14.73;;;6.35;;
62696;SDS011;48761;42.680;23.312;2023-06-24T14:13:43;16.08;;;7.60;;
62696;SDS011;48761;42.680;23.312;2023-06-24T14:16:10;14.73;;;7.07;;
62696;SDS011;48761;42.680;23.312;2023-06-24T14:18:37;24.77;;;7.38;;
62696;SDS011;48761;42.680;23.312;2023-06-24T14:21:04;12.98;;;6.50;;
62696;SDS011;48761;42.680;23.312;2023-06-24T14:23:31;13.25;;;6.57;;
62696;SDS011;48761;42.680;23.312;2023-06-24T14:25:58;14.30;;;7.50;;
62696;SDS011;48761;42.680;23.312;2023-06-24T14:28:24;10.98;;;6.85;;
62696;SDS011;48761;42.680;23.312;2023-06-24T14:30:51;10.48;;;6.68;;
62696;SDS011;48761;42.680;23.312;2023-06-24T14:33:17;10.23;;;6.43;;
62696;SDS011;48761;42.680;23.312;2023-06-24T14:35:44;17.92;;;8.65;;